createdAt,value
2023-07-04T00:01:36.344Z,18.24
2023-07-04T00:04:08.875Z,18.36
2023-07-04T00:06:38.026Z,18.47
2023-07-04T00:09:06.549Z,18.47
2023-07-04T00:11:35.071Z,18.42
2023-07-04T00:14:02.940Z,18.39
2023-07-04T00:16:30.788Z,18.45
2023-07-04T00:18:58.751Z,18.44
2023-07-04T00:21:27.422Z,18.47
2023-07-04T00:23:55.104Z,18.50
2023-07-04T00:26:25.070Z,18.49
2023-07-04T00:28:53.828Z,18.38
2023-07-04T00:31:25.721Z,18.35
2023-07-04T00:33:55.062Z,18.34
2023-07-04T00:36:23.534Z,18.35
2023-07-04T00:38:57.087Z,18.38
2023-07-04T00:41:28.329Z,18.34
2023-07-04T00:44:10.830Z,18.31
2023-07-04T00:47:08.561Z,18.35
2023-07-04T00:49:43.654Z,18.30
2023-07-04T00:52:17.359Z,18.23
2023-07-04T00:54:54.082Z,18.12
2023-07-04T00:57:26.738Z,17.99
2023-07-04T00:59:59.667Z,17.89
2023-07-04T01:02:32.970Z,17.85
2023-07-04T01:05:04.914Z,17.84
2023-07-04T01:08:20.395Z,17.74
2023-07-04T01:10:49.152Z,17.68
2023-07-04T01:13:35.335Z,17.65
2023-07-04T01:16:10.537Z,17.60
2023-07-04T01:18:39.747Z,17.58
2023-07-04T01:21:10.355Z,17.59
2023-07-04T01:23:59.687Z,17.67
2023-07-04T01:26:38.227Z,17.75
2023-07-04T01:29:11.801Z,17.80
2023-07-04T01:31:45.373Z,17.85
2023-07-04T01:34:14.644Z,17.90
2023-07-04T01:36:43.629Z,17.96
2023-07-04T01:39:16.640Z,18.02
2023-07-04T01:41:47.036Z,18.06
2023-07-04T01:44:20.316Z,18.07
2023-07-04T01:46:48.033Z,18.16
2023-07-04T01:49:16.638Z,18.17
2023-07-04T01:51:44.436Z,18.21
2023-07-04T01:54:18.396Z,18.27
2023-07-04T01:56:49.724Z,18.33
2023-07-04T01:59:17.416Z,18.42
2023-07-04T02:01:45.245Z,18.48
2023-07-04T02:04:13.099Z,18.50
2023-07-04T02:06:40.777Z,18.46
2023-07-04T02:09:08.924Z,18.41
2023-07-04T02:11:38.361Z,18.40
2023-07-04T02:14:07.447Z,18.37
2023-07-04T02:16:35.225Z,18.41
2023-07-04T02:19:03.193Z,18.44
2023-07-04T02:21:30.888Z,18.49
2023-07-04T02:24:00.789Z,18.56
2023-07-04T02:26:29.559Z,18.65
2023-07-04T02:28:57.574Z,18.67
2023-07-04T02:31:25.617Z,18.74
2023-07-04T02:33:54.574Z,18.75
2023-07-04T02:36:22.884Z,18.83
2023-07-04T02:38:52.006Z,18.90
2023-07-04T02:41:20.494Z,18.96
2023-07-04T02:43:53.068Z,19.00
2023-07-04T02:46:21.516Z,19.12
2023-07-04T02:48:53.038Z,19.19
2023-07-04T02:51:20.871Z,19.24
2023-07-04T02:53:49.037Z,19.27
2023-07-04T02:56:16.780Z,19.32
2023-07-04T02:58:44.996Z,19.37
2023-07-04T03:01:12.953Z,19.39
2023-07-04T03:03:42.434Z,19.45
2023-07-04T03:06:11.438Z,19.49
2023-07-04T03:08:41.805Z,19.57
2023-07-04T03:11:09.673Z,19.62
2023-07-04T03:13:37.436Z,19.68
2023-07-04T03:16:06.523Z,19.71
2023-07-04T03:18:35.352Z,19.83
2023-07-04T03:21:03.800Z,19.89
2023-07-04T03:23:31.537Z,19.96
2023-07-04T03:25:59.905Z,19.98
2023-07-04T03:28:27.752Z,20.04
2023-07-04T03:30:57.235Z,20.11
2023-07-04T03:33:26.765Z,20.18
2023-07-04T03:35:59.683Z,20.21
2023-07-04T03:38:29.840Z,20.33
2023-07-04T03:41:00.342Z,20.41
2023-07-04T03:43:29.002Z,20.47
2023-07-04T03:45:56.773Z,20.52
2023-07-04T03:48:24.892Z,20.58
2023-07-04T03:50:53.132Z,20.65
2023-07-04T03:53:21.275Z,20.72
2023-07-04T03:55:50.829Z,20.78
2023-07-04T03:58:19.000Z,20.83
2023-07-04T04:00:51.742Z,20.91
2023-07-04T04:03:20.130Z,20.91
2023-07-04T04:05:48.231Z,20.97
2023-07-04T04:08:16.046Z,21.01
2023-07-04T04:10:44.385Z,21.08
2023-07-04T04:13:12.154Z,21.11
2023-07-04T04:15:39.903Z,21.17
2023-07-04T04:18:07.526Z,21.24
2023-07-04T04:20:35.459Z,21.30
2023-07-04T04:23:03.265Z,21.33
2023-07-04T04:25:39.551Z,21.35
2023-07-04T04:28:08.878Z,21.46
2023-07-04T04:30:37.952Z,21.51
2023-07-04T04:33:05.908Z,21.59
2023-07-04T04:35:34.309Z,21.66
2023-07-04T04:38:02.120Z,21.70
2023-07-04T04:40:29.987Z,21.72
2023-07-04T04:42:57.945Z,21.79
2023-07-04T04:45:25.935Z,21.82
2023-07-04T04:47:56.501Z,21.84
2023-07-04T04:50:26.218Z,21.87
2023-07-04T04:52:54.059Z,21.89
2023-07-04T04:55:21.745Z,21.92
2023-07-04T04:57:49.456Z,22.00
2023-07-04T05:00:18.147Z,22.03
2023-07-04T05:02:46.480Z,22.13
2023-07-04T05:05:14.551Z,22.18
2023-07-04T05:07:42.523Z,22.24
2023-07-04T05:10:10.608Z,22.30
2023-07-04T05:12:40.063Z,22.28
2023-07-04T05:15:09.300Z,22.29
2023-07-04T05:17:37.101Z,22.34
2023-07-04T05:20:06.619Z,22.42
2023-07-04T05:22:34.719Z,22.42
2023-07-04T05:25:02.839Z,22.40
2023-07-04T05:27:31.894Z,22.33
2023-07-04T05:29:59.775Z,22.35
2023-07-04T05:32:27.417Z,22.40
2023-07-04T05:34:55.163Z,22.44
2023-07-04T05:37:23.042Z,22.45
2023-07-04T05:39:51.626Z,22.47
2023-07-04T05:42:19.419Z,22.51
2023-07-04T05:44:47.128Z,22.48
2023-07-04T05:47:14.968Z,22.51
2023-07-04T05:49:42.739Z,22.51
2023-07-04T05:52:10.527Z,22.57
2023-07-04T05:54:38.297Z,22.66
2023-07-04T05:57:37.173Z,22.73
2023-07-04T06:08:47.048Z,23.09
2023-07-04T06:16:08.716Z,23.32
2023-07-04T06:19:10.403Z,23.39
2023-07-04T06:21:44.337Z,23.42
2023-07-04T06:24:27.762Z,23.45
2023-07-04T06:27:06.500Z,23.38
2023-07-04T06:29:37.130Z,23.42
2023-07-04T06:32:09.098Z,23.47
2023-07-04T06:34:50.011Z,23.59
2023-07-04T06:37:19.626Z,23.61
2023-07-04T06:39:47.661Z,23.60
2023-07-04T06:42:16.044Z,23.69
2023-07-04T06:44:50.327Z,23.78
2023-07-04T06:47:18.520Z,23.76
2023-07-04T06:49:47.867Z,23.73
2023-07-04T06:54:44.121Z,23.69
2023-07-04T06:57:12.402Z,23.69
2023-07-04T06:59:40.530Z,23.74
2023-07-04T10:01:51.719Z,25.80
2023-07-04T10:04:44.733Z,26.03
2023-07-04T10:07:15.629Z,26.14
2023-07-04T10:09:56.859Z,26.18
2023-07-04T10:12:26.901Z,26.27
2023-07-04T10:14:57.929Z,26.27
2023-07-04T10:17:29.279Z,26.25
2023-07-04T10:20:10.920Z,26.17
2023-07-04T10:22:48.150Z,26.22
2023-07-04T10:25:23.785Z,26.28
2023-07-04T10:27:59.784Z,26.24
2023-07-04T10:30:40.161Z,26.38
2023-07-04T10:33:16.790Z,26.54
2023-07-04T10:35:49.879Z,26.71
2023-07-04T10:38:39.179Z,26.69
2023-07-04T10:41:20.065Z,26.77
2023-07-04T10:43:54.493Z,26.86
2023-07-04T10:46:26.705Z,26.90
2023-07-04T10:49:02.713Z,27.02
2023-07-04T10:51:36.275Z,27.18
2023-07-04T10:54:06.290Z,27.31
2023-07-04T10:56:37.791Z,27.36
2023-07-04T10:59:17.680Z,27.26
2023-07-04T11:04:41.076Z,27.28
2023-07-04T11:07:23.218Z,27.37
2023-07-04T11:10:01.926Z,27.41
2023-07-04T11:12:37.566Z,27.45
2023-07-04T11:15:10.458Z,27.53
2023-07-04T11:17:42.596Z,27.63
2023-07-04T11:20:39.748Z,27.78
2023-07-04T11:27:10.711Z,27.83
2023-07-04T11:29:52.513Z,27.83
2023-07-04T11:32:39.436Z,27.84
2023-07-04T11:35:17.218Z,27.94
2023-07-04T11:37:56.583Z,27.97
2023-07-04T11:40:30.866Z,28.13
2023-07-04T11:43:04.539Z,28.22
2023-07-04T11:45:34.098Z,28.40
2023-07-04T11:48:32.525Z,28.55
2023-07-04T11:51:19.901Z,28.63
2023-07-04T11:54:03.335Z,28.81
2023-07-04T11:59:20.176Z,29.35
2023-07-04T12:02:09.676Z,29.51
2023-07-04T12:04:38.317Z,29.66
2023-07-04T12:07:16.417Z,29.81
2023-07-04T12:10:02.194Z,29.96
2023-07-04T12:12:36.696Z,29.98
2023-07-04T12:15:12.184Z,29.94
2023-07-04T12:17:47.206Z,30.07
2023-07-04T12:20:18.272Z,30.20
2023-07-04T12:22:53.383Z,30.33
2023-07-04T12:25:29.236Z,30.53
2023-07-04T12:28:01.551Z,30.82
2023-07-04T12:33:01.607Z,31.28
2023-07-04T12:35:33.116Z,31.35
2023-07-04T12:38:04.689Z,31.30
2023-07-04T12:40:33.466Z,31.34
2023-07-04T12:45:35.802Z,33.17
2023-07-04T12:50:40.881Z,34.73
2023-07-04T12:53:12.506Z,33.83
2023-07-04T12:55:41.657Z,33.85
2023-07-04T12:58:13.998Z,33.50
2023-07-04T13:01:00.169Z,33.35
2023-07-04T13:03:28.139Z,35.51
2023-07-04T13:05:59.271Z,37.57
2023-07-04T13:08:29.813Z,39.01
2023-07-04T13:11:00.883Z,40.60
2023-07-04T13:13:43.846Z,41.64
2023-07-04T13:16:22.239Z,40.26
2023-07-04T13:18:51.086Z,38.16
2023-07-04T13:21:28.382Z,36.44
2023-07-04T13:26:47.508Z,35.73
2023-07-04T13:34:32.485Z,40.17
2023-07-04T13:37:03.695Z,40.37
2023-07-04T13:42:20.983Z,42.29
2023-07-04T13:47:20.715Z,43.12
2023-07-04T13:49:48.648Z,43.30
2023-07-04T13:52:16.991Z,43.50
2023-07-04T13:54:45.028Z,43.17
2023-07-04T13:57:13.204Z,43.05
2023-07-04T13:59:41.256Z,43.37
2023-07-04T14:10:34.333Z,45.69
2023-07-04T14:13:03.624Z,45.56
2023-07-04T14:20:35.275Z,43.70
2023-07-04T14:25:45.448Z,43.48
2023-07-04T14:28:14.176Z,40.40
2023-07-04T14:30:42.642Z,37.44
2023-07-04T14:33:10.857Z,35.52
2023-07-04T14:35:42.510Z,34.54
2023-07-04T14:38:11.620Z,33.87
2023-07-04T14:43:11.853Z,37.92
2023-07-04T14:45:39.692Z,40.54
2023-07-04T14:48:09.765Z,42.63
2023-07-04T14:50:37.899Z,43.96
2023-07-04T14:53:06.028Z,44.41
2023-07-04T14:55:44.701Z,45.18
2023-07-04T14:59:12.389Z,45.40
2023-07-04T15:01:40.160Z,45.65
2023-07-04T15:04:07.959Z,45.57
2023-07-04T15:06:35.555Z,45.42
2023-07-04T15:09:04.009Z,45.68
2023-07-04T15:11:31.684Z,46.19
2023-07-04T15:14:11.799Z,46.65
2023-07-04T15:16:49.827Z,46.60
2023-07-04T15:19:23.533Z,46.68
2023-07-04T15:21:51.204Z,46.84
2023-07-04T15:24:19.671Z,47.03
2023-07-04T15:26:47.713Z,47.10
2023-07-04T15:29:15.690Z,47.12
2023-07-04T15:31:43.621Z,47.08
2023-07-04T15:34:12.279Z,46.66
2023-07-04T15:36:40.001Z,46.67
2023-07-04T15:39:07.621Z,46.62
2023-07-04T15:41:35.296Z,46.51
2023-07-04T15:44:03.755Z,46.15
2023-07-04T15:46:31.474Z,45.78
2023-07-04T15:48:59.332Z,45.39
2023-07-04T15:51:27.227Z,45.68
2023-07-04T15:53:55.213Z,45.91
2023-07-04T15:56:23.768Z,45.94
2023-07-04T15:58:51.536Z,45.81
2023-07-04T16:01:20.939Z,44.32
2023-07-04T16:03:49.285Z,42.28
2023-07-04T16:06:18.514Z,42.02
2023-07-04T16:08:46.151Z,42.22
2023-07-04T16:11:15.144Z,42.47
2023-07-04T16:13:43.747Z,42.61
2023-07-04T16:16:12.441Z,42.70
2023-07-04T16:18:40.239Z,42.69
2023-07-04T16:21:08.062Z,42.53
2023-07-04T16:23:35.892Z,42.25
2023-07-04T16:26:04.506Z,42.08
2023-07-04T16:28:32.161Z,42.21
2023-07-04T16:31:08.258Z,42.24
2023-07-04T16:33:36.471Z,41.77
2023-07-04T16:36:05.577Z,41.48
2023-07-04T16:38:34.017Z,41.39
2023-07-04T16:41:02.649Z,41.03
2023-07-04T16:43:31.344Z,40.67
2023-07-04T16:45:59.049Z,40.30
2023-07-04T16:48:26.828Z,39.87
2023-07-04T16:50:59.006Z,39.53
2023-07-04T16:53:28.139Z,39.40
2023-07-04T16:55:58.203Z,39.12
2023-07-04T16:58:27.120Z,38.61
2023-07-04T17:00:55.428Z,38.22
2023-07-04T17:03:24.061Z,37.85
2023-07-04T17:05:54.047Z,37.24
2023-07-04T17:08:24.918Z,36.59
2023-07-04T17:10:53.782Z,35.51
2023-07-04T17:13:37.070Z,33.96
2023-07-04T17:16:11.199Z,32.48
2023-07-04T17:18:39.959Z,31.45
2023-07-04T17:21:09.341Z,30.71
2023-07-04T17:23:37.252Z,30.12
2023-07-04T17:26:05.409Z,29.60
2023-07-04T17:28:34.214Z,29.20
2023-07-04T17:31:05.094Z,28.86
2023-07-04T17:33:33.265Z,28.53
2023-07-04T17:36:18.968Z,28.29
2023-07-04T17:38:47.410Z,28.04
2023-07-04T17:41:16.706Z,27.82
2023-07-04T17:43:45.921Z,27.60
2023-07-04T17:46:14.465Z,27.39
2023-07-04T17:48:47.198Z,27.20
2023-07-04T17:51:17.681Z,27.04
2023-07-04T17:53:45.719Z,26.86
2023-07-04T17:56:16.298Z,26.72
2023-07-04T17:58:44.457Z,26.54
2023-07-04T18:01:16.302Z,26.40
2023-07-04T18:03:46.321Z,26.27
2023-07-04T18:06:16.948Z,26.10
2023-07-04T18:08:45.262Z,25.95
2023-07-04T18:11:19.778Z,25.82
2023-07-04T18:13:47.715Z,25.65
2023-07-04T18:16:16.656Z,25.52
2023-07-04T18:18:44.890Z,25.39
2023-07-04T18:21:18.539Z,25.31
2023-07-04T18:23:48.248Z,25.19
2023-07-04T18:26:20.810Z,25.10
2023-07-04T18:29:02.418Z,25.03
2023-07-04T18:32:35.872Z,24.99
2023-07-04T18:39:51.596Z,24.72
2023-07-04T18:42:51.813Z,24.64
2023-07-04T18:48:48.897Z,24.47
2023-07-04T18:51:23.068Z,24.42
2023-07-04T18:53:51.645Z,24.28
2023-07-04T18:56:23.243Z,24.19
2023-07-04T18:58:55.967Z,24.11
2023-07-04T19:01:29.445Z,24.05
2023-07-04T19:04:04.021Z,24.02
2023-07-04T19:07:09.452Z,23.90
2023-07-04T19:09:40.486Z,23.87
2023-07-04T19:12:10.859Z,23.80
2023-07-04T19:14:38.735Z,23.77
2023-07-04T19:17:07.277Z,23.73
2023-07-04T19:19:40.519Z,23.64
2023-07-04T19:22:11.093Z,23.64
2023-07-04T19:24:41.352Z,23.56
2023-07-04T19:27:13.154Z,23.52
2023-07-04T19:29:42.086Z,23.49
2023-07-04T19:32:10.644Z,23.45
2023-07-04T19:34:38.526Z,23.42
2023-07-04T19:37:10.507Z,23.41
2023-07-04T19:39:50.287Z,23.37
2023-07-04T19:42:18.146Z,23.37
2023-07-04T19:44:46.152Z,23.29
2023-07-04T19:47:15.790Z,23.22
2023-07-04T19:49:43.955Z,23.19
2023-07-04T19:52:14.103Z,23.15
2023-07-04T19:54:44.528Z,23.09
2023-07-04T19:57:22.303Z,23.10
2023-07-04T20:00:15.354Z,23.10
2023-07-04T20:03:07.617Z,23.12
2023-07-04T20:06:08.096Z,23.11
2023-07-04T20:08:55.085Z,23.07
2023-07-04T20:11:26.303Z,23.03
2023-07-04T20:13:54.327Z,22.97
2023-07-04T20:16:31.018Z,22.94
2023-07-04T20:19:00.065Z,22.92
2023-07-04T20:21:31.266Z,22.90
2023-07-04T20:23:59.198Z,22.89
2023-07-04T20:26:29.920Z,22.88
2023-07-04T20:28:59.217Z,22.90
2023-07-04T20:31:27.097Z,22.83
2023-07-04T20:33:54.957Z,22.75
2023-07-04T20:36:22.789Z,22.75
2023-07-04T20:38:50.990Z,22.77
2023-07-04T20:41:21.080Z,22.75
2023-07-04T20:43:48.854Z,22.71
2023-07-04T20:46:18.969Z,22.65
2023-07-04T20:48:46.991Z,22.56
2023-07-04T20:51:14.801Z,22.51
2023-07-04T20:53:44.409Z,22.46
2023-07-04T20:56:14.280Z,22.42
2023-07-04T20:59:01.118Z,22.41
2023-07-04T21:01:39.361Z,22.42
2023-07-04T21:04:35.815Z,22.48
2023-07-04T21:07:31.455Z,22.48
2023-07-04T21:10:28.442Z,22.43
2023-07-04T21:13:00.212Z,22.38
2023-07-04T21:15:29.342Z,22.30
2023-07-04T21:18:01.037Z,22.26
2023-07-04T21:20:29.004Z,22.23
2023-07-04T21:22:57.220Z,22.19
2023-07-04T21:25:49.322Z,22.11
2023-07-04T21:28:17.229Z,22.08
2023-07-04T21:30:45.084Z,22.08
2023-07-04T21:33:13.050Z,22.08
2023-07-04T21:35:41.930Z,22.03
2023-07-04T21:38:12.116Z,22.04
2023-07-04T21:40:40.037Z,22.01
2023-07-04T21:43:08.236Z,21.98
2023-07-04T21:45:37.149Z,22.00
2023-07-04T21:48:05.209Z,21.92
2023-07-04T21:50:33.072Z,21.85
2023-07-04T21:53:00.801Z,21.80
2023-07-04T21:55:28.702Z,21.76
2023-07-04T21:57:56.439Z,21.73
2023-07-04T22:00:24.198Z,21.70
2023-07-04T22:02:52.100Z,21.69
2023-07-04T22:05:19.898Z,21.69
2023-07-04T22:07:47.655Z,21.67
2023-07-04T22:10:15.705Z,21.68
2023-07-04T22:12:43.508Z,21.64
2023-07-04T22:15:11.839Z,21.61
2023-07-04T22:17:39.718Z,21.54
2023-07-04T22:20:07.988Z,21.54
2023-07-04T22:22:35.709Z,21.53
2023-07-04T22:25:03.454Z,21.51
2023-07-04T22:27:31.516Z,21.45
2023-07-04T22:29:59.375Z,21.39
2023-07-04T22:32:28.672Z,21.37
2023-07-04T22:34:56.468Z,21.30
2023-07-04T22:37:24.320Z,21.32
2023-07-04T22:39:52.097Z,21.28
2023-07-04T22:42:19.873Z,21.23
2023-07-04T22:44:47.624Z,21.18
2023-07-04T22:47:15.365Z,21.09
2023-07-04T22:49:43.100Z,21.00
2023-07-04T22:52:10.837Z,20.92
2023-07-04T22:54:38.559Z,20.88
2023-07-04T22:57:06.420Z,20.84
2023-07-04T22:59:34.214Z,20.76
2023-07-04T23:02:02.044Z,20.73
2023-07-04T23:04:29.902Z,20.68
2023-07-04T23:06:57.715Z,20.62
2023-07-04T23:09:25.405Z,20.54
2023-07-04T23:11:53.156Z,20.49
2023-07-04T23:14:21.082Z,20.44
2023-07-04T23:16:49.039Z,20.40
2023-07-04T23:19:16.890Z,20.35
2023-07-04T23:21:44.831Z,20.31
2023-07-04T23:24:12.626Z,20.30
2023-07-04T23:26:40.317Z,20.28
2023-07-04T23:29:08.252Z,20.22
2023-07-04T23:31:38.889Z,20.17
2023-07-04T23:34:07.058Z,20.19
2023-07-04T23:36:34.975Z,20.18
2023-07-04T23:39:02.863Z,20.15
2023-07-04T23:41:30.780Z,20.13
2023-07-04T23:43:58.896Z,20.16
2023-07-04T23:46:30.204Z,20.11
2023-07-04T23:49:07.245Z,20.04
2023-07-04T23:51:42.285Z,20.01
2023-07-04T23:54:35.874Z,19.97
2023-07-04T23:57:18.589Z,19.96
2023-07-04T23:59:49.666Z,19.95
